createdAt,value
2023-04-16T00:00:13.899Z,0.0000
2023-04-16T00:01:14.507Z,0.0000
2023-04-16T00:02:15.161Z,0.2393
2023-04-16T00:03:15.956Z,0.2387
2023-04-16T00:04:17.101Z,0.0593
2023-04-16T00:05:18.113Z,0.9498
2023-04-16T00:06:18.687Z,1.1937
2023-04-16T00:07:19.257Z,2.9310
2023-04-16T00:08:19.885Z,1.6131
2023-04-16T00:09:20.465Z,0.2394
2023-04-16T00:10:20.962Z,0.9575
2023-04-16T00:11:21.573Z,0.0598
2023-04-16T00:12:22.165Z,0.6579
2023-04-16T00:13:22.753Z,1.7942
2023-04-16T00:14:23.278Z,1.6750
2023-04-16T00:15:23.807Z,1.1975
2023-04-16T00:16:24.536Z,1.6745
2023-04-16T00:17:25.131Z,0.0000
2023-04-16T00:18:25.703Z,0.2391
2023-04-16T00:19:26.231Z,2.9328
2023-04-16T00:20:26.835Z,0.0000
2023-04-16T00:21:27.416Z,1.3162
2023-04-16T00:22:28.016Z,4.1874
2023-04-16T00:23:28.580Z,2.2724
2023-04-16T00:24:29.252Z,0.0000
2023-04-16T00:25:29.869Z,0.8370
2023-04-16T00:26:30.469Z,0.0598
2023-04-16T00:27:31.060Z,3.3523
2023-04-16T00:28:31.632Z,1.6735
2023-04-16T00:29:32.229Z,1.0768
2023-04-16T00:30:32.750Z,3.1122
2023-04-16T00:31:33.232Z,0.6590
2023-04-16T00:32:33.833Z,0.2395
2023-04-16T00:33:34.392Z,1.9139
2023-04-16T00:34:34.916Z,1.7959
2023-04-16T00:35:35.470Z,1.7360
2023-04-16T00:36:35.965Z,0.6585
2023-04-16T00:37:36.573Z,2.9340
2023-04-16T00:38:37.077Z,3.2910
2023-04-16T00:39:37.673Z,2.1540
2023-04-16T00:40:38.275Z,1.6151
2023-04-16T00:41:38.782Z,0.5985
2023-04-16T00:42:39.424Z,3.3476
2023-04-16T00:43:40.232Z,2.6214
2023-04-16T00:44:40.805Z,2.1543
2023-04-16T00:45:41.350Z,1.5553
2023-04-16T00:46:41.981Z,2.0941
2023-04-16T00:47:42.668Z,0.4782
2023-04-16T00:48:43.266Z,2.7464
2023-04-16T00:49:43.827Z,5.1471
2023-04-16T00:50:44.392Z,3.8283
2023-04-16T00:51:44.886Z,4.1903
2023-04-16T00:52:45.508Z,1.1965
2023-04-16T00:53:46.060Z,2.2735
2023-04-16T00:54:46.604Z,4.6074
2023-04-16T00:55:47.167Z,4.5489
2023-04-16T00:56:47.804Z,3.7084
2023-04-16T00:57:48.345Z,0.0000
2023-04-16T00:58:48.965Z,4.6039
2023-04-16T00:59:49.556Z,3.7665
2023-04-16T01:00:50.117Z,0.7179
2023-04-16T01:01:50.969Z,1.9086
2023-04-16T01:02:51.815Z,4.0639
2023-04-16T01:03:52.713Z,5.3527
2023-04-16T01:04:53.597Z,4.3841
2023-04-16T01:05:54.147Z,1.0776
2023-04-16T01:06:54.694Z,1.7361
2023-04-16T01:07:55.308Z,3.5301
2023-04-16T01:08:55.853Z,3.8290
2023-04-16T01:09:56.460Z,0.4183
2023-04-16T01:10:56.998Z,1.6764
2023-04-16T01:11:57.601Z,2.4514
2023-04-16T01:12:58.266Z,1.3767
2023-04-16T01:13:58.815Z,1.3141
2023-04-16T01:14:59.351Z,0.8978
2023-04-16T01:16:00.018Z,2.1526
2023-04-16T01:17:00.635Z,0.9553
2023-04-16T01:18:01.249Z,3.1110
2023-04-16T01:19:01.836Z,3.2278
2023-04-16T01:20:02.422Z,1.4361
2023-04-16T01:21:03.041Z,3.3500
2023-04-16T01:22:03.573Z,2.9905
2023-04-16T01:23:04.161Z,3.9495
2023-04-16T01:24:04.705Z,2.7520
2023-04-16T01:25:05.288Z,3.3505
2023-04-16T01:26:05.845Z,1.2563
2023-04-16T01:27:06.420Z,4.9050
2023-04-16T01:28:06.973Z,2.0358
2023-04-16T01:29:07.832Z,3.2281
2023-04-16T01:30:08.574Z,2.7901
2023-04-16T01:31:09.132Z,5.8091
2023-04-16T01:32:09.699Z,5.8028
2023-04-16T01:33:10.275Z,5.3872
2023-04-16T01:34:10.822Z,5.1471
2023-04-16T01:35:11.335Z,4.6709
2023-04-16T01:36:11.939Z,5.5635
2023-04-16T01:37:12.489Z,3.4113
2023-04-16T01:38:13.096Z,1.2562
2023-04-16T01:39:13.668Z,6.1654
2023-04-16T01:40:14.222Z,5.6202
2023-04-16T01:41:14.714Z,1.7363
2023-04-16T01:42:15.258Z,1.6164
2023-04-16T01:43:15.881Z,4.5484
2023-04-16T01:44:16.432Z,5.1420
2023-04-16T01:45:16.973Z,2.2142
2023-04-16T01:46:17.520Z,2.5747
2023-04-16T01:47:18.076Z,2.0366
2023-04-16T01:48:18.645Z,2.7493
2023-04-16T01:49:19.197Z,1.0774
2023-04-16T01:50:19.747Z,1.3168
2023-04-16T01:51:20.353Z,1.2557
2023-04-16T01:52:20.901Z,3.7104
2023-04-16T01:53:21.518Z,4.4871
2023-04-16T01:54:22.087Z,3.0497
2023-04-16T01:55:22.629Z,1.3763
2023-04-16T01:56:23.220Z,1.2564
2023-04-16T01:57:23.768Z,2.8721
2023-04-16T01:58:24.427Z,3.8248
2023-04-16T01:59:25.014Z,0.5982
2023-04-16T02:00:25.582Z,0.8375
2023-04-16T02:01:26.176Z,3.4722
2023-04-16T02:02:26.962Z,2.6270
2023-04-16T02:03:27.739Z,2.5061
2023-04-16T02:04:28.398Z,1.5496
2023-04-16T02:05:28.955Z,0.4186
2023-04-16T02:06:29.607Z,0.0598
2023-04-16T02:07:30.186Z,3.4688
2023-04-16T02:08:30.872Z,3.7038
2023-04-16T02:09:31.477Z,3.2879
2023-04-16T02:10:32.086Z,2.1529
2023-04-16T02:11:32.716Z,2.2725
2023-04-16T02:12:33.332Z,3.7650
2023-04-16T02:13:33.981Z,0.0000
2023-04-16T02:14:34.561Z,0.0000
2023-04-16T02:15:35.149Z,0.1197
2023-04-16T02:16:35.974Z,0.8366
2023-04-16T02:17:36.648Z,1.2517
2023-04-16T02:18:37.262Z,0.8363
2023-04-16T02:19:37.883Z,1.4342
2023-04-16T02:20:38.542Z,0.6580
2023-04-16T02:21:39.228Z,0.2987
2023-04-16T02:22:39.791Z,1.5548
2023-04-16T02:23:40.497Z,3.1672
2023-04-16T02:24:41.214Z,1.1945
2023-04-16T02:25:41.834Z,2.7453
2023-04-16T02:26:42.444Z,1.6749
2023-04-16T02:27:43.177Z,0.7157
2023-04-16T02:28:43.853Z,2.5109
2023-04-16T02:29:44.485Z,0.8362
2023-04-16T02:30:45.120Z,1.2557
2023-04-16T02:31:45.811Z,0.2391
2023-04-16T02:32:46.550Z,0.7747
2023-04-16T02:33:47.096Z,1.1960
2023-04-16T02:34:47.874Z,2.2100
2023-04-16T02:35:48.443Z,1.9703
2023-04-16T02:36:49.153Z,0.0000
2023-04-16T02:37:49.753Z,0.0597
2023-04-16T02:38:50.427Z,0.0000
2023-04-16T02:39:51.138Z,0.0000
2023-04-16T02:40:51.766Z,2.5685
2023-04-16T02:41:52.374Z,1.9721
2023-04-16T02:42:52.939Z,1.0163
2023-04-16T02:43:53.509Z,0.2992
2023-04-16T02:44:54.220Z,2.5114
2023-04-16T02:45:55.344Z,0.0000
2023-04-16T02:46:55.969Z,0.0597
2023-04-16T02:47:56.626Z,0.0000
2023-04-16T02:48:57.337Z,2.6293
2023-04-16T02:49:57.953Z,0.1790
2023-04-16T02:50:58.672Z,0.2392
2023-04-16T02:51:59.320Z,0.5368
2023-04-16T02:52:59.936Z,2.4524
2023-04-16T02:54:00.596Z,0.4779
2023-04-16T02:55:01.205Z,3.3481
2023-04-16T02:56:01.886Z,4.0034
2023-04-16T02:57:02.573Z,2.0307
2023-04-16T02:58:03.178Z,3.1041
2023-04-16T02:59:03.842Z,2.2711
2023-04-16T03:00:04.470Z,1.0756
2023-04-16T03:01:05.161Z,0.1194
2023-04-16T03:02:05.798Z,3.3490
2023-04-16T03:03:06.398Z,5.4375
2023-04-16T03:04:07.073Z,1.6133
2023-04-16T03:05:07.712Z,1.8525
2023-04-16T03:06:08.399Z,2.1475
2023-04-16T03:07:09.005Z,0.3589
2023-04-16T03:08:09.604Z,0.0000
2023-04-16T03:09:10.923Z,0.9562
2023-04-16T03:10:11.898Z,1.9398
2023-04-16T03:11:12.523Z,0.0598
2023-04-16T03:12:13.134Z,0.0000
2023-04-16T03:13:13.755Z,2.2118
2023-04-16T03:14:14.367Z,3.8882
2023-04-16T03:15:15.009Z,3.4048
2023-04-16T03:16:15.794Z,0.6576
2023-04-16T03:17:16.570Z,0.9531
2023-04-16T03:18:17.193Z,2.3259
2023-04-16T03:19:17.832Z,1.4352
2023-04-16T03:20:18.464Z,3.7039
2023-04-16T03:21:19.046Z,3.2890
2023-04-16T03:22:20.157Z,3.7515
2023-04-16T03:23:21.022Z,3.8569
2023-04-16T03:24:21.625Z,1.6737
2023-04-16T03:25:22.292Z,3.7633
2023-04-16T03:26:22.874Z,3.0490
2023-04-16T03:27:23.549Z,1.6132
2023-04-16T03:28:24.162Z,1.0763
2023-04-16T03:29:24.777Z,1.9726
2023-04-16T03:30:25.411Z,0.4182
2023-04-16T03:31:26.089Z,3.8842
2023-04-16T03:32:26.772Z,4.5399
2023-04-16T03:33:27.418Z,4.5981
2023-04-16T03:34:28.121Z,5.7360
2023-04-16T03:35:28.758Z,2.8675
2023-04-16T03:36:29.402Z,0.5379
2023-04-16T03:37:29.998Z,1.3741
2023-04-16T03:38:30.584Z,4.7845
2023-04-16T03:39:31.217Z,4.3068
2023-04-16T03:40:31.840Z,4.9610
2023-04-16T03:41:32.487Z,4.7175
2023-04-16T03:42:33.070Z,6.0394
2023-04-16T03:43:33.682Z,6.7002
2023-04-16T03:44:34.267Z,5.6212
2023-04-16T03:45:34.864Z,4.4247
2023-04-16T03:46:35.481Z,5.5633
2023-04-16T03:47:36.147Z,4.8398
2023-04-16T03:48:36.774Z,5.7952
2023-04-16T03:49:37.488Z,4.3653
2023-04-16T03:50:38.116Z,5.0124
2023-04-16T03:51:38.696Z,3.2888
2023-04-16T03:52:39.323Z,2.0935
2023-04-16T03:53:39.959Z,4.1221
2023-04-16T03:54:40.626Z,2.5711
2023-04-16T03:55:41.251Z,2.3890
2023-04-16T03:56:41.852Z,2.4527
2023-04-16T03:57:42.481Z,2.6885
2023-04-16T03:58:43.118Z,1.0767
2023-04-16T03:59:43.780Z,3.2859
2023-04-16T04:00:44.431Z,3.2860
2023-04-16T04:01:45.058Z,1.3156
2023-04-16T04:02:45.812Z,1.4932
2023-04-16T04:03:46.740Z,1.0119
2023-04-16T04:04:47.838Z,1.2453
2023-04-16T04:05:48.528Z,3.5767
2023-04-16T04:06:49.168Z,3.9432
2023-04-16T04:07:49.747Z,5.8626
2023-04-16T04:08:50.366Z,2.4508
2023-04-16T04:09:51.045Z,3.8885
2023-04-16T04:10:51.644Z,3.4033
2023-04-16T04:11:52.331Z,1.3760
2023-04-16T04:12:52.942Z,4.3014
2023-04-16T04:13:53.587Z,4.5435
2023-04-16T04:14:54.268Z,5.2016
2023-04-16T04:15:54.907Z,3.1061
2023-04-16T04:16:55.567Z,2.7475
2023-04-16T04:17:56.249Z,2.2107
2023-04-16T04:18:56.893Z,1.7918
2023-04-16T04:20:01.251Z,0.8373
2023-04-16T04:21:00.153Z,1.3890
2023-04-16T04:22:00.785Z,1.7923
2023-04-16T04:23:01.368Z,1.2556
2023-04-16T04:24:02.051Z,0.0598
2023-04-16T04:25:02.886Z,3.7530
2023-04-16T04:26:03.527Z,1.4338
2023-04-16T04:27:04.184Z,3.1058
2023-04-16T04:28:04.898Z,3.7066
2023-04-16T04:29:05.567Z,3.4605
2023-04-16T04:30:06.218Z,1.9127
2023-04-16T04:31:06.845Z,0.7767
2023-04-16T04:32:07.596Z,1.8532
2023-04-16T04:33:08.546Z,1.6026
2023-04-16T04:34:09.185Z,2.0921
2023-04-16T04:35:09.856Z,2.6889
2023-04-16T04:36:10.519Z,0.4180
2023-04-16T04:37:11.185Z,2.7504
2023-04-16T04:38:13.180Z,1.0150
2023-04-16T04:39:12.859Z,2.6715
2023-04-16T04:40:13.556Z,4.6041
2023-04-16T04:41:14.244Z,4.9573
2023-04-16T04:42:14.839Z,3.8842
2023-04-16T04:43:15.493Z,3.5865
2023-04-16T04:44:16.172Z,5.0117
2023-04-16T04:45:16.857Z,3.9481
2023-04-16T04:46:17.524Z,4.8408
2023-04-16T04:47:18.175Z,2.3292
2023-04-16T04:48:18.893Z,3.2854
2023-04-16T04:49:19.498Z,4.7178
2023-04-16T04:50:20.190Z,1.0749
2023-04-16T04:51:20.880Z,2.7482
2023-04-16T04:52:21.473Z,2.8081
2023-04-16T04:53:22.101Z,2.6299
2023-04-16T04:54:22.678Z,4.2484
2023-04-16T04:55:23.453Z,3.2250
2023-04-16T04:56:24.105Z,2.2688
2023-04-16T04:57:24.837Z,3.7622
2023-04-16T04:58:25.413Z,5.1381
2023-04-16T04:59:26.088Z,2.1487
2023-04-16T05:00:26.744Z,0.1795
2023-04-16T05:01:27.479Z,3.2847
2023-04-16T05:02:28.175Z,1.4330
2023-04-16T05:03:28.889Z,0.1193
2023-04-16T05:04:29.546Z,2.6273
2023-04-16T05:05:30.180Z,3.7072
2023-04-16T05:06:30.946Z,4.2994
2023-04-16T05:07:31.558Z,5.4317
2023-04-16T05:08:32.186Z,2.9295
2023-04-16T05:09:32.824Z,3.1063
2023-04-16T05:10:33.420Z,4.0665
2023-04-16T05:11:34.079Z,3.1074
2023-04-16T05:12:34.671Z,4.6048
2023-04-16T05:13:35.315Z,1.4334
2023-04-16T05:14:35.964Z,2.0926
2023-04-16T05:15:36.567Z,3.4647
2023-04-16T05:16:37.344Z,2.7499
2023-04-16T05:17:37.958Z,2.2682
2023-04-16T05:18:38.596Z,2.8078
2023-04-16T05:19:39.197Z,1.8534
2023-04-16T05:20:39.836Z,0.1195
2023-04-16T05:21:40.519Z,3.8850
2023-04-16T05:22:41.169Z,3.5843
2023-04-16T05:23:41.817Z,1.8523
2023-04-16T05:24:42.472Z,3.1083
2023-04-16T05:25:43.129Z,1.9118
2023-04-16T05:26:43.833Z,0.0000
2023-04-16T05:27:44.460Z,0.1195
2023-04-16T05:28:45.064Z,2.6310
2023-04-16T05:29:45.787Z,4.8951
2023-04-16T05:30:46.410Z,4.3653
2023-04-16T05:31:47.172Z,5.3733
2023-04-16T05:32:47.824Z,3.1032
2023-04-16T05:33:48.394Z,1.1357
2023-04-16T05:34:49.073Z,2.5104
2023-04-16T05:35:49.719Z,0.7768
2023-04-16T05:36:50.439Z,1.8518
2023-04-16T05:37:51.041Z,2.8676
2023-04-16T05:38:51.743Z,1.8530
2023-04-16T05:39:52.580Z,4.1085
2023-04-16T05:40:53.238Z,3.6448
2023-04-16T05:41:53.852Z,0.4785
2023-04-16T05:42:54.639Z,0.4182
2023-04-16T05:43:55.332Z,3.0992
2023-04-16T05:44:56.038Z,4.7724
2023-04-16T05:45:56.837Z,2.0900
2023-04-16T05:46:57.538Z,3.0420
2023-04-16T05:47:58.180Z,1.3147
2023-04-16T05:48:58.832Z,0.1195
2023-04-16T05:49:59.411Z,0.1196
2023-04-16T05:51:00.053Z,0.1195
2023-04-16T05:52:00.658Z,0.9576
2023-04-16T05:53:01.345Z,2.6281
2023-04-16T05:54:02.042Z,3.2848
2023-04-16T05:55:02.646Z,2.5104
2023-04-16T05:56:03.328Z,2.2103
2023-04-16T05:57:03.949Z,0.0000
2023-04-16T05:58:04.538Z,1.0755
2023-04-16T05:59:05.237Z,0.1196
2023-04-16T06:00:05.870Z,0.1195
2023-04-16T06:01:06.477Z,0.1196
2023-04-16T06:02:07.198Z,0.0000
2023-04-16T06:03:08.030Z,0.0000
2023-04-16T06:04:08.996Z,0.0000
2023-04-16T06:05:09.702Z,0.0000
2023-04-16T06:06:10.296Z,0.3589
2023-04-16T06:07:10.933Z,2.9298
2023-04-16T06:08:11.607Z,2.4475
2023-04-16T06:09:12.317Z,1.1361
2023-04-16T06:10:12.970Z,0.2390
2023-04-16T06:11:13.587Z,2.8659
2023-04-16T06:12:14.270Z,3.1103
2023-04-16T06:13:14.851Z,1.0749
2023-04-16T06:14:15.500Z,2.5090
2023-04-16T06:15:16.194Z,2.2123
2023-04-16T06:16:16.883Z,3.8831
2023-04-16T06:17:17.618Z,3.8761
2023-04-16T06:18:18.250Z,0.3584
2023-04-16T06:19:18.986Z,0.0000
2023-04-16T06:20:19.621Z,0.0000
2023-04-16T06:21:20.232Z,0.8365
2023-04-16T06:22:20.918Z,1.5535
2023-04-16T06:23:21.564Z,5.4979
2023-04-16T06:24:22.172Z,5.5576
2023-04-16T06:25:22.863Z,7.0502
2023-04-16T06:26:23.482Z,4.3028
2023-04-16T06:27:24.203Z,4.9579
2023-04-16T06:28:24.847Z,4.7175
2023-04-16T06:29:33.717Z,6.2093
2023-04-16T06:30:26.891Z,7.0927
2023-04-16T06:31:27.596Z,6.0861
2023-04-16T06:32:28.479Z,6.9116
2023-04-16T06:33:29.234Z,7.2116
2023-04-16T06:34:29.887Z,5.1342
2023-04-16T06:35:30.518Z,5.5568
2023-04-16T06:36:31.213Z,5.2593
2023-04-16T06:37:31.863Z,4.6030
2023-04-16T06:38:32.493Z,6.1523
2023-04-16T06:39:33.432Z,4.3411
2023-04-16T06:40:34.088Z,5.3796
2023-04-16T06:41:34.750Z,4.6626
2023-04-16T06:42:35.418Z,3.8838
2023-04-16T06:43:36.053Z,4.8401
2023-04-16T06:44:36.644Z,4.0662
2023-04-16T06:45:37.270Z,3.5850
2023-04-16T06:46:37.994Z,1.2553
2023-04-16T06:47:38.759Z,1.3122
2023-04-16T06:48:39.384Z,4.2436
2023-04-16T06:49:39.977Z,4.2431
2023-04-16T06:50:40.600Z,1.3762
2023-04-16T06:51:41.207Z,0.1195
2023-04-16T06:52:41.952Z,0.1196
2023-04-16T06:53:42.584Z,2.8031
2023-04-16T06:54:43.345Z,3.5852
2023-04-16T06:55:43.993Z,3.1033
2023-04-16T06:56:44.750Z,2.4478
2023-04-16T06:57:45.475Z,0.6563
2023-04-16T06:58:46.162Z,0.4772
2023-04-16T06:59:46.834Z,0.8962
2023-04-16T07:00:47.693Z,2.4484
2023-04-16T07:01:48.534Z,0.6543
2023-04-16T07:02:49.391Z,1.4919
2023-04-16T07:03:50.322Z,1.4260
2023-04-16T07:04:51.513Z,1.7133
2023-04-16T07:05:52.174Z,1.5530
2023-04-16T07:06:52.899Z,0.1194
2023-04-16T07:07:53.635Z,0.8362
2023-04-16T07:08:54.384Z,2.5059
2023-04-16T07:09:55.087Z,4.5922
2023-04-16T07:10:55.823Z,2.4492
2023-04-16T07:11:56.609Z,0.0000
2023-04-16T07:12:57.399Z,0.0000
2023-04-16T07:13:58.088Z,1.1920
2023-04-16T07:14:58.761Z,1.3144
2023-04-16T07:15:59.461Z,0.5965
2023-04-16T07:17:00.129Z,4.1824
2023-04-16T07:18:00.855Z,0.8959
2023-04-16T07:19:01.576Z,1.8497
2023-04-16T07:20:02.210Z,0.5971
2023-04-16T07:21:02.897Z,0.0000
2023-04-16T07:22:03.835Z,1.3741
2023-04-16T07:23:04.539Z,0.7725
2023-04-16T07:24:05.256Z,1.6131
2023-04-16T07:25:05.865Z,4.5348
2023-04-16T07:26:06.473Z,0.2989
2023-04-16T07:27:07.135Z,0.0000
2023-04-16T07:28:07.827Z,0.7767
2023-04-16T07:29:08.800Z,2.7452
2023-04-16T07:30:09.791Z,1.5375
2023-04-16T07:31:10.452Z,1.1347
2023-04-16T07:32:12.445Z,0.1195
2023-04-16T07:33:12.153Z,1.1270
2023-04-16T07:34:12.933Z,2.6271
2023-04-16T07:35:13.593Z,0.4772
2023-04-16T07:36:14.259Z,0.4180
2023-04-16T07:37:14.927Z,0.1793
2023-04-16T07:38:15.714Z,1.3119
2023-04-16T07:39:16.438Z,1.0748
2023-04-16T07:40:17.175Z,0.9548
2023-04-16T07:41:17.872Z,2.3874
2023-04-16T07:42:18.550Z,0.2387
2023-04-16T07:43:19.357Z,0.2987
2023-04-16T07:44:20.088Z,0.0000
2023-04-16T07:45:20.774Z,0.0000
2023-04-16T07:46:21.853Z,0.9556
2023-04-16T07:47:22.885Z,3.3015
2023-04-16T07:48:23.674Z,0.0597
2023-04-16T07:49:24.390Z,1.1340
2023-04-16T07:50:25.083Z,1.5520
2023-04-16T07:51:25.799Z,0.0597
2023-04-16T07:52:26.418Z,0.0597
2023-04-16T07:53:27.184Z,0.8365
2023-04-16T07:54:29.084Z,0.0597
2023-04-16T07:55:30.063Z,0.4665
2023-04-16T07:56:30.797Z,0.0596
2023-04-16T07:57:31.492Z,1.6713
2023-04-16T07:58:32.283Z,0.2984
2023-04-16T07:59:32.996Z,0.2385
2023-04-16T08:00:33.707Z,0.2387
2023-04-16T08:01:34.403Z,0.1791
2023-04-16T08:02:35.118Z,0.0000
2023-04-16T08:03:36.348Z,0.0593
2023-04-16T08:04:37.256Z,0.4153
2023-04-16T08:05:38.280Z,0.0000
2023-04-16T08:06:39.039Z,0.0000
2023-04-16T08:07:39.696Z,2.3872
2023-04-16T08:08:40.349Z,1.9112
2023-04-16T08:09:41.115Z,2.4474
2023-04-16T08:10:41.719Z,0.4779
2023-04-16T08:11:42.366Z,1.5531
2023-04-16T08:12:42.994Z,0.1195
2023-04-16T08:13:43.650Z,0.0000
2023-04-16T08:14:44.323Z,0.0000
2023-04-16T08:15:45.136Z,0.0000
2023-04-16T08:16:45.944Z,0.0595
2023-04-16T08:17:46.636Z,0.0597
2023-04-16T08:18:47.369Z,0.0000
2023-04-16T08:19:48.095Z,1.5514
2023-04-16T08:20:48.758Z,0.1195
2023-04-16T08:21:49.630Z,0.0596
2023-04-16T08:22:50.439Z,0.1191
2023-04-16T08:23:51.085Z,0.4779
2023-04-16T08:24:51.763Z,2.2101
2023-04-16T08:25:53.112Z,0.8941
2023-04-16T08:26:53.857Z,0.0000
2023-04-16T08:27:54.600Z,0.0000
2023-04-16T08:28:55.232Z,0.0000
2023-04-16T08:29:55.927Z,0.0598
2023-04-16T08:30:56.624Z,2.5663
2023-04-16T08:31:57.304Z,0.0000
2023-04-16T08:32:58.001Z,0.0000
2023-04-16T08:33:58.722Z,0.0596
2023-04-16T08:34:59.442Z,0.0597
2023-04-16T08:36:00.116Z,0.0000
2023-04-16T08:37:00.761Z,0.6565
2023-04-16T08:38:02.598Z,0.4779
2023-04-16T08:39:03.443Z,2.1617
2023-04-16T08:40:04.161Z,0.2389
2023-04-16T08:41:04.802Z,0.4776
2023-04-16T08:42:05.439Z,0.0000
2023-04-16T08:43:06.055Z,0.0598
2023-04-16T08:44:06.838Z,1.3124
2023-04-16T08:45:07.444Z,0.7169
2023-04-16T08:46:08.160Z,0.8961
2023-04-16T08:47:08.882Z,0.1791
2023-04-16T08:48:09.807Z,0.0595
2023-04-16T08:49:10.700Z,2.8040
2023-04-16T08:50:11.681Z,0.4145
2023-04-16T08:51:12.336Z,0.1792
2023-04-16T08:52:13.047Z,0.1194
2023-04-16T08:53:13.699Z,2.0902
2023-04-16T08:54:14.378Z,0.7764
2023-04-16T08:55:15.090Z,0.0000
2023-04-16T08:56:15.813Z,0.0000
2023-04-16T08:57:16.484Z,0.5378
2023-04-16T08:58:17.145Z,4.2956
2023-04-16T08:59:17.798Z,2.1505
2023-04-16T09:00:18.497Z,1.5526
2023-04-16T09:01:19.347Z,0.5369
2023-04-16T09:02:20.131Z,1.3109
2023-04-16T09:03:21.197Z,0.0000
2023-04-16T09:04:22.018Z,3.0888
2023-04-16T09:05:22.789Z,0.8939
2023-04-16T09:06:23.443Z,0.7761
2023-04-16T09:07:24.266Z,1.0721
2023-04-16T09:08:24.967Z,1.9703
2023-04-16T09:09:25.654Z,1.0749
2023-04-16T09:10:26.576Z,1.7324
2023-04-16T09:11:27.194Z,0.7733
2023-04-16T09:12:27.877Z,1.9713
2023-04-16T09:13:28.515Z,2.4489
2023-04-16T09:14:29.317Z,3.4630
2023-04-16T09:15:29.970Z,1.4914
2023-04-16T09:16:30.784Z,0.7756
2023-04-16T09:17:31.450Z,2.2671
2023-04-16T09:18:32.063Z,0.0000
2023-04-16T09:19:32.728Z,0.4780
2023-04-16T09:20:33.351Z,2.2104
2023-04-16T09:21:33.987Z,0.7764
2023-04-16T09:22:34.641Z,1.2552
2023-04-16T09:23:35.330Z,0.0597
2023-04-16T09:24:35.941Z,2.2117
2023-04-16T09:25:36.926Z,0.0000
2023-04-16T09:26:37.562Z,1.5512
2023-04-16T09:27:38.256Z,0.8363
2023-04-16T09:28:38.904Z,1.0757
2023-04-16T09:29:39.600Z,0.8361
2023-04-16T09:30:40.313Z,0.5370
2023-04-16T09:31:40.994Z,0.3584
2023-04-16T09:32:41.798Z,0.0596
2023-04-16T09:33:42.450Z,1.0742
2023-04-16T09:34:43.236Z,0.2388
2023-04-16T09:35:43.956Z,0.0000
2023-04-16T09:36:44.628Z,0.1790
2023-04-16T09:37:45.284Z,2.7471
2023-04-16T09:38:45.986Z,2.5080
2023-04-16T09:39:46.646Z,0.8360
2023-04-16T09:40:47.401Z,0.1194
2023-04-16T09:41:48.224Z,0.9517
2023-04-16T09:42:49.222Z,0.0595
2023-04-16T09:43:49.823Z,0.0000
2023-04-16T09:44:50.454Z,1.8531
2023-04-16T09:45:51.260Z,1.3135
2023-04-16T09:46:51.965Z,0.0000
2023-04-16T09:47:52.739Z,1.0731
2023-04-16T09:48:53.414Z,3.6405
2023-04-16T09:49:54.923Z,1.4714
2023-04-16T09:50:55.580Z,0.7771
2023-04-16T09:51:56.275Z,0.0000
2023-04-16T09:52:56.926Z,0.6568
2023-04-16T09:53:57.614Z,0.0597
2023-04-16T09:54:58.278Z,0.1194
2023-04-16T09:55:59.062Z,2.3881
2023-04-16T09:56:59.795Z,2.3265
2023-04-16T09:58:00.503Z,2.6826
2023-04-16T09:59:01.177Z,1.2546
2023-04-16T10:00:01.816Z,3.8232
2023-04-16T10:01:02.592Z,1.9704
2023-04-16T10:02:14.600Z,3.0376
2023-04-16T10:03:04.794Z,2.4183
2023-04-16T10:04:05.655Z,2.7390
2023-04-16T10:05:06.499Z,0.1191
2023-04-16T10:06:07.171Z,0.0000
2023-04-16T10:07:07.858Z,0.9556
2023-04-16T10:08:08.546Z,0.0000
2023-04-16T10:09:09.452Z,1.3142
2023-04-16T10:10:10.510Z,1.9500
2023-04-16T10:11:11.206Z,2.6869
2023-04-16T10:12:12.063Z,0.3581
2023-04-16T10:13:12.863Z,1.4276
2023-04-16T10:14:13.617Z,0.4765
2023-04-16T10:15:14.387Z,1.1942
2023-04-16T10:16:15.181Z,0.0000
2023-04-16T10:17:15.846Z,0.4176
2023-04-16T10:18:16.521Z,0.2986
2023-04-16T10:19:17.121Z,2.7494
2023-04-16T10:20:17.792Z,0.9560
2023-04-16T10:21:18.538Z,4.0005
2023-04-16T10:22:19.168Z,1.0732
2023-04-16T10:23:19.743Z,2.2717
2023-04-16T10:24:20.359Z,3.8866
2023-04-16T10:25:21.016Z,0.7767
2023-04-16T10:26:21.677Z,1.0759
2023-04-16T10:27:22.326Z,1.4322
2023-04-16T10:28:23.114Z,1.3124
2023-04-16T10:29:23.797Z,0.2389
2023-04-16T10:30:24.519Z,0.0597
2023-04-16T10:31:25.233Z,3.7032
2023-04-16T10:32:26.180Z,6.0570
2023-04-16T10:33:26.894Z,2.1495
2023-04-16T10:34:27.545Z,1.9103
2023-04-16T10:35:28.225Z,3.1058
2023-04-16T10:36:28.999Z,2.0291
2023-04-16T10:37:29.625Z,0.1789
2023-04-16T10:38:30.339Z,0.5971
2023-04-16T10:39:30.992Z,4.3584
2023-04-16T10:40:31.640Z,2.7476
2023-04-16T10:41:32.363Z,0.1792
2023-04-16T10:42:33.063Z,0.9534
2023-04-16T10:43:33.753Z,3.5230
2023-04-16T10:44:34.370Z,5.0797
2023-04-16T10:45:35.233Z,1.5521
2023-04-16T10:46:35.992Z,0.1785
2023-04-16T10:47:36.664Z,1.5517
2023-04-16T10:48:48.660Z,4.8385
2023-04-16T10:49:38.712Z,3.1898
2023-04-16T10:50:39.587Z,2.7933
2023-04-16T10:51:40.370Z,2.9199
2023-04-16T10:52:41.074Z,4.8345
2023-04-16T10:53:41.732Z,5.4904
2023-04-16T10:54:42.398Z,4.1803
2023-04-16T10:55:42.998Z,4.6599
2023-04-16T10:56:43.689Z,6.6324
2023-04-16T10:57:44.378Z,7.2216
2023-04-16T10:58:45.019Z,7.6434
2023-04-16T10:59:45.663Z,5.1375
2023-04-16T11:00:46.340Z,3.4654
2023-04-16T11:01:47.041Z,5.4293
2023-04-16T11:02:47.833Z,5.3719
2023-04-16T11:03:48.617Z,4.5873
2023-04-16T11:04:50.007Z,4.7557
2023-04-16T11:05:50.842Z,2.0063
2023-04-16T11:06:51.532Z,6.0303
2023-04-16T11:07:52.506Z,8.1726
2023-04-16T11:08:54.915Z,3.8678
2023-04-16T11:09:53.814Z,4.0602
2023-04-16T11:10:54.487Z,5.1379
2023-04-16T11:11:55.181Z,3.6395
2023-04-16T11:12:55.857Z,4.4205
2023-04-16T11:13:56.530Z,3.9415
2023-04-16T11:14:57.198Z,4.4763
2023-04-16T11:15:57.861Z,4.8946
2023-04-16T11:16:58.499Z,3.8857
2023-04-16T11:17:59.176Z,5.0722
2023-04-16T11:18:59.810Z,3.2846
2023-04-16T11:20:00.545Z,4.7209
2023-04-16T11:21:01.275Z,2.5637
2023-04-16T11:22:01.898Z,0.1194
2023-04-16T11:23:02.579Z,1.8507
2023-04-16T11:24:03.133Z,5.6188
2023-04-16T11:25:03.778Z,7.8293
2023-04-16T11:26:04.426Z,5.1378
2023-04-16T11:27:05.176Z,3.1040
2023-04-16T11:28:05.828Z,3.9375
2023-04-16T11:29:06.516Z,4.4191
2023-04-16T11:30:07.174Z,5.1353
2023-04-16T11:31:07.861Z,4.2386
2023-04-16T11:32:08.545Z,4.2394
2023-04-16T11:33:09.245Z,4.5378
2023-04-16T11:34:09.900Z,0.7161
2023-04-16T11:35:10.547Z,1.6729
2023-04-16T11:36:11.139Z,3.2857
2023-04-16T11:37:11.885Z,3.1056
2023-04-16T11:38:12.555Z,3.2840
2023-04-16T11:39:13.229Z,5.0736
2023-04-16T11:40:14.020Z,3.3412
2023-04-16T11:41:14.680Z,4.5354
2023-04-16T11:42:15.436Z,2.1483
2023-04-16T11:43:16.179Z,1.8492
2023-04-16T11:44:16.829Z,0.5965
2023-04-16T11:45:17.902Z,3.0327
2023-04-16T11:46:27.398Z,3.0282
2023-04-16T11:47:20.271Z,1.8888
2023-04-16T11:48:21.031Z,0.6551
2023-04-16T11:49:21.740Z,3.8786
2023-04-16T11:50:22.757Z,0.5936
2023-04-16T11:51:23.810Z,0.8337
2023-04-16T11:52:24.991Z,4.3105
2023-04-16T11:53:25.752Z,2.6840
2023-04-16T11:54:26.455Z,3.2818
2023-04-16T11:55:27.178Z,2.6846
2023-04-16T11:56:27.850Z,2.3870
2023-04-16T11:57:28.549Z,2.3902
2023-04-16T11:58:29.263Z,0.4174
2023-04-16T11:59:29.970Z,0.0597
2023-04-16T12:00:30.665Z,1.7890
2023-04-16T12:01:31.408Z,2.6258
2023-04-16T12:02:32.313Z,1.3725
2023-04-16T12:03:33.348Z,0.5346
2023-04-16T12:04:34.204Z,0.5347
2023-04-16T12:05:34.954Z,1.4890
2023-04-16T12:06:35.695Z,3.2804
2023-04-16T12:07:36.494Z,1.7874
2023-04-16T12:08:37.272Z,0.4178
2023-04-16T12:09:40.569Z,0.5952
2023-04-16T12:10:39.048Z,0.8903
2023-04-16T12:11:39.747Z,0.5971
2023-04-16T12:12:40.480Z,3.2803
2023-04-16T12:13:41.218Z,4.4743
2023-04-16T12:14:41.946Z,1.1326
2023-04-16T12:15:42.631Z,0.9554
2023-04-16T12:16:43.371Z,1.2533
2023-04-16T12:17:45.263Z,1.6997
2023-04-16T12:18:45.924Z,1.3702
2023-04-16T12:19:46.674Z,2.3863
2023-04-16T12:20:47.436Z,3.6399
2023-04-16T12:21:48.250Z,2.3822
2023-04-16T12:22:49.006Z,4.2334
2023-04-16T12:23:49.748Z,3.2197
2023-04-16T12:24:50.495Z,5.7236
2023-04-16T12:25:51.173Z,4.6551
2023-04-16T12:26:51.928Z,5.3675
2023-04-16T12:27:54.009Z,5.9081
2023-04-16T12:28:54.999Z,4.3576
2023-04-16T12:29:55.709Z,3.9983
2023-04-16T12:30:56.539Z,6.1433
2023-04-16T12:31:57.277Z,3.8127
2023-04-16T12:32:59.166Z,4.5870
2023-04-16T12:33:59.870Z,5.3895
2023-04-16T12:35:00.556Z,6.3302
2023-04-16T12:36:01.239Z,5.9099
2023-04-16T12:37:02.802Z,4.2937